createdAt,value
2018-09-29T00:01:35.554Z,99.90
2018-09-29T00:04:03.994Z,99.90
2018-09-29T00:06:32.471Z,99.90
2018-09-29T00:09:00.963Z,99.90
2018-09-29T00:11:29.520Z,99.90
2018-09-29T00:13:57.999Z,99.90
2018-09-29T00:16:26.530Z,99.90
2018-09-29T00:18:54.990Z,99.90
2018-09-29T00:21:23.431Z,99.90
2018-09-29T00:23:51.868Z,99.90
2018-09-29T00:26:20.423Z,99.90
2018-09-29T00:28:49.041Z,99.90
2018-09-29T00:31:17.751Z,99.90
2018-09-29T00:33:46.178Z,99.90
2018-09-29T00:36:14.727Z,99.90
2018-09-29T00:38:43.387Z,99.90
2018-09-29T00:41:12.065Z,99.90
2018-09-29T00:43:40.506Z,99.90
2018-09-29T00:46:09.326Z,99.90
2018-09-29T00:48:37.891Z,99.90
2018-09-29T00:51:06.380Z,99.90
2018-09-29T00:53:34.870Z,99.90
2018-09-29T00:56:03.355Z,99.90
2018-09-29T00:58:31.877Z,99.90
2018-09-29T01:01:00.559Z,99.90
2018-09-29T01:03:29.035Z,99.90
2018-09-29T01:05:57.487Z,99.90
2018-09-29T01:08:25.971Z,99.90
2018-09-29T01:10:54.479Z,99.90
2018-09-29T01:13:22.972Z,99.90
2018-09-29T01:15:51.436Z,99.90
2018-09-29T01:21:05.907Z,99.90
2018-09-29T01:23:35.656Z,99.90
2018-09-29T01:26:05.324Z,99.90
2018-09-29T01:28:36.067Z,99.90
2018-09-29T01:31:05.736Z,99.90
2018-09-29T01:33:34.650Z,99.90
2018-09-29T01:36:03.745Z,99.90
2018-09-29T01:38:32.936Z,99.90
2018-09-29T01:41:02.000Z,99.90
2018-09-29T01:43:32.293Z,99.90
2018-09-29T01:46:01.483Z,99.90
2018-09-29T01:48:30.588Z,99.90
2018-09-29T01:51:00.092Z,99.90
2018-09-29T01:56:08.524Z,99.90
2018-09-29T01:58:43.411Z,99.90
2018-09-29T02:04:15.802Z,99.90
2018-09-29T02:06:44.343Z,99.90
2018-09-29T02:09:12.932Z,99.90
2018-09-29T02:11:41.432Z,99.90
2018-09-29T02:14:09.991Z,99.90
2018-09-29T02:16:38.506Z,99.90
2018-09-29T02:19:07.243Z,99.90
2018-09-29T02:21:35.677Z,99.90
2018-09-29T02:24:04.144Z,99.90
2018-09-29T02:26:32.690Z,99.90
2018-09-29T02:29:01.348Z,99.90
2018-09-29T02:31:29.742Z,99.90
2018-09-29T02:33:58.365Z,99.90
2018-09-29T02:36:26.826Z,99.90
2018-09-29T02:38:55.299Z,99.90
2018-09-29T02:41:24.580Z,99.90
2018-09-29T02:43:52.990Z,99.90
2018-09-29T02:46:21.509Z,99.90
2018-09-29T02:48:49.973Z,99.90
2018-09-29T02:54:09.024Z,99.90
2018-09-29T02:56:38.215Z,99.90
2018-09-29T02:59:07.407Z,99.90
2018-09-29T03:01:36.208Z,99.90
2018-09-29T03:04:05.293Z,99.90
2018-09-29T03:06:34.241Z,99.90
2018-09-29T03:09:03.348Z,99.90
2018-09-29T03:11:33.008Z,99.90
2018-09-29T03:14:01.805Z,99.90
2018-09-29T03:16:30.732Z,99.90
2018-09-29T03:19:00.353Z,99.90
2018-09-29T03:21:29.436Z,99.90
2018-09-29T03:23:59.169Z,99.90
2018-09-29T03:26:29.154Z,99.90
2018-09-29T03:28:58.420Z,99.90
2018-09-29T03:31:27.563Z,99.90
2018-09-29T03:33:56.520Z,99.90
2018-09-29T03:36:26.452Z,99.90
2018-09-29T03:38:56.545Z,99.90
2018-09-29T03:41:26.566Z,99.90
2018-09-29T03:43:56.049Z,99.90
2018-09-29T03:46:25.200Z,99.90
2018-09-29T03:48:54.362Z,99.90
2018-09-29T03:51:24.301Z,99.90
2018-09-29T03:53:53.476Z,99.90
2018-09-29T03:56:22.469Z,99.90
2018-09-29T03:58:51.396Z,99.90
2018-09-29T04:01:20.385Z,99.90
2018-09-29T04:03:49.317Z,99.90
2018-09-29T04:06:18.775Z,99.90
2018-09-29T04:08:47.600Z,99.90
2018-09-29T04:11:16.564Z,99.90
2018-09-29T04:13:46.094Z,99.90
2018-09-29T04:19:00.411Z,99.90
2018-09-29T04:21:38.997Z,99.90
2018-09-29T04:24:09.509Z,99.90
2018-09-29T04:26:38.556Z,99.90
2018-09-29T04:29:07.907Z,99.90
2018-09-29T04:31:37.702Z,99.90
2018-09-29T04:34:06.733Z,99.90
2018-09-29T04:36:42.757Z,99.90
2018-09-29T04:39:12.642Z,99.90
2018-09-29T04:41:41.398Z,99.90
2018-09-29T04:44:10.836Z,99.90
2018-09-29T04:46:40.179Z,99.90
2018-09-29T04:49:08.887Z,99.90
2018-09-29T04:51:37.325Z,99.90
2018-09-29T04:54:05.736Z,99.90
2018-09-29T04:56:34.442Z,99.90
2018-09-29T04:59:02.941Z,99.90
2018-09-29T05:01:31.406Z,99.90
2018-09-29T05:03:59.826Z,99.90
2018-09-29T05:06:28.609Z,99.90
2018-09-29T05:08:57.554Z,99.90
2018-09-29T05:11:25.980Z,99.90
2018-09-29T05:13:54.403Z,99.90
2018-09-29T05:16:23.200Z,99.90
2018-09-29T05:18:51.550Z,99.90
2018-09-29T05:21:19.895Z,99.90
2018-09-29T05:23:48.206Z,99.90
2018-09-29T05:26:16.575Z,99.90
2018-09-29T05:28:44.899Z,99.90
2018-09-29T05:31:13.242Z,99.90
2018-09-29T05:33:41.563Z,99.90
2018-09-29T05:36:09.911Z,99.90
2018-09-29T05:38:38.274Z,99.90
2018-09-29T05:41:06.613Z,99.90
2018-09-29T05:43:34.938Z,99.90
2018-09-29T05:46:03.294Z,99.90
2018-09-29T05:48:31.612Z,99.90
2018-09-29T05:50:59.947Z,99.90
2018-09-29T05:53:28.270Z,99.90
2018-09-29T05:55:56.615Z,99.90
2018-09-29T05:58:24.926Z,99.90
2018-09-29T06:00:53.256Z,99.90
2018-09-29T06:03:21.576Z,99.90
2018-09-29T06:05:49.977Z,99.90
2018-09-29T06:08:18.283Z,99.90
2018-09-29T06:10:46.645Z,99.90
2018-09-29T06:13:15.012Z,99.90
2018-09-29T06:15:43.327Z,99.90
2018-09-29T06:18:11.658Z,99.90
2018-09-29T06:20:39.981Z,99.90
2018-09-29T06:23:08.331Z,99.90
2018-09-29T06:25:36.669Z,99.90
2018-09-29T06:28:05.054Z,99.90
2018-09-29T06:30:33.383Z,99.90
2018-09-29T06:33:01.702Z,99.90
2018-09-29T06:35:30.138Z,99.90
2018-09-29T06:37:58.474Z,99.90
2018-09-29T06:40:26.790Z,99.90
2018-09-29T06:42:55.126Z,99.90
2018-09-29T06:45:23.444Z,99.90
2018-09-29T06:47:51.801Z,99.90
2018-09-29T06:50:21.203Z,99.90
2018-09-29T06:52:49.659Z,99.90
2018-09-29T06:55:18.995Z,99.90
2018-09-29T06:57:47.343Z,99.90
2018-09-29T07:00:15.662Z,99.90
2018-09-29T07:02:44.017Z,99.90
2018-09-29T07:05:12.382Z,99.90
2018-09-29T07:07:40.734Z,99.90
2018-09-29T07:10:09.086Z,99.90
2018-09-29T07:12:37.454Z,99.90
2018-09-29T07:15:06.603Z,99.90
2018-09-29T07:17:35.166Z,99.90
2018-09-29T07:20:03.618Z,99.90
2018-09-29T07:22:32.020Z,99.90
2018-09-29T07:25:00.378Z,99.90
2018-09-29T07:27:28.743Z,99.90
2018-09-29T07:29:57.099Z,99.90
2018-09-29T07:32:25.518Z,99.90
2018-09-29T07:34:53.958Z,99.90
2018-09-29T07:37:22.335Z,99.90
2018-09-29T07:39:50.677Z,99.90
2018-09-29T07:42:19.018Z,99.90
2018-09-29T07:44:47.398Z,99.90
2018-09-29T07:47:15.796Z,99.90
2018-09-29T07:49:44.142Z,99.90
2018-09-29T07:52:12.556Z,99.90
2018-09-29T07:54:40.979Z,99.90
2018-09-29T07:57:09.283Z,99.90
2018-09-29T07:59:37.674Z,99.90
2018-09-29T08:02:06.107Z,99.90
2018-09-29T08:04:34.482Z,99.90
2018-09-29T08:07:02.852Z,99.90
2018-09-29T08:09:31.218Z,99.90
2018-09-29T08:11:59.593Z,99.90
2018-09-29T08:14:28.143Z,99.90
2018-09-29T08:16:56.559Z,99.90
2018-09-29T08:19:24.910Z,99.90
2018-09-29T08:21:53.257Z,99.90
2018-09-29T08:24:21.706Z,99.90
2018-09-29T08:26:50.066Z,99.90
2018-09-29T08:29:18.426Z,99.90
2018-09-29T08:31:46.770Z,99.90
2018-09-29T08:34:15.139Z,99.90
2018-09-29T08:36:43.510Z,99.90
2018-09-29T08:39:11.874Z,99.90
2018-09-29T08:41:40.234Z,99.90
2018-09-29T08:44:08.586Z,99.90
2018-09-29T08:46:37.003Z,99.90
2018-09-29T08:49:05.375Z,99.90
2018-09-29T08:51:33.751Z,99.90
2018-09-29T08:54:02.160Z,99.90
2018-09-29T08:56:30.614Z,99.90
2018-09-29T08:58:59.066Z,99.90
2018-09-29T09:01:27.461Z,99.90
2018-09-29T09:03:55.901Z,99.90
2018-09-29T09:06:24.258Z,99.90
2018-09-29T09:08:52.619Z,99.90
2018-09-29T09:11:21.039Z,99.90
2018-09-29T09:13:49.427Z,99.90
2018-09-29T09:16:17.790Z,99.90
2018-09-29T09:18:46.166Z,99.90
2018-09-29T09:21:14.540Z,99.90
2018-09-29T09:23:42.958Z,99.90
2018-09-29T09:26:11.333Z,99.90
2018-09-29T09:28:39.659Z,99.90
2018-09-29T09:31:08.035Z,99.90
2018-09-29T09:33:36.514Z,99.00
2018-09-29T09:36:04.917Z,97.70
2018-09-29T09:38:33.297Z,96.90
2018-09-29T09:41:01.683Z,96.40
2018-09-29T09:43:30.100Z,95.90
2018-09-29T09:45:58.474Z,94.80
2018-09-29T09:48:26.854Z,95.40
2018-09-29T09:50:55.231Z,94.80
2018-09-29T09:53:23.584Z,94.60
2018-09-29T09:55:51.996Z,93.40
2018-09-29T09:58:20.350Z,93.10
2018-09-29T10:00:54.066Z,92.60
2018-09-29T10:03:30.443Z,91.90
2018-09-29T10:05:58.854Z,92.10
2018-09-29T10:08:27.693Z,92.00
2018-09-29T10:10:56.055Z,91.40
2018-09-29T10:13:24.414Z,91.00
2018-09-29T10:15:52.922Z,90.50
2018-09-29T10:18:21.330Z,90.30
2018-09-29T10:20:49.708Z,90.30
2018-09-29T10:23:18.067Z,90.10
2018-09-29T10:25:46.526Z,89.50
2018-09-29T10:28:14.911Z,87.20
2018-09-29T10:33:17.964Z,86.70
2018-09-29T10:35:46.350Z,85.40
2018-09-29T10:38:14.748Z,86.00
2018-09-29T10:40:43.127Z,86.10
2018-09-29T10:43:12.523Z,83.00
2018-09-29T10:45:41.084Z,82.80
2018-09-29T10:48:09.500Z,81.40
2018-09-29T10:50:37.966Z,80.30
2018-09-29T10:53:06.406Z,80.90
2018-09-29T10:55:34.814Z,80.30
2018-09-29T10:58:03.174Z,78.80
2018-09-29T11:00:31.535Z,77.30
2018-09-29T11:03:00.118Z,76.40
2018-09-29T11:05:28.481Z,75.40
2018-09-29T11:07:56.872Z,75.10
2018-09-29T11:10:25.297Z,74.70
2018-09-29T11:12:53.694Z,73.60
2018-09-29T11:15:22.134Z,73.60
2018-09-29T11:17:50.510Z,73.90
2018-09-29T11:20:18.868Z,73.90
2018-09-29T11:22:47.259Z,73.20
2018-09-29T11:25:15.634Z,71.80
2018-09-29T11:27:44.027Z,69.40
2018-09-29T11:30:12.390Z,68.90
2018-09-29T11:32:40.774Z,69.30
2018-09-29T11:35:09.123Z,70.50
2018-09-29T11:37:37.504Z,69.20
2018-09-29T11:40:05.879Z,68.80
2018-09-29T11:42:34.242Z,68.50
2018-09-29T11:45:02.623Z,70.20
2018-09-29T11:47:31.005Z,68.60
2018-09-29T11:49:59.357Z,66.20
2018-09-29T11:52:27.745Z,64.30
2018-09-29T11:54:56.084Z,62.30
2018-09-29T11:57:24.463Z,61.80
2018-09-29T11:59:52.810Z,61.50
2018-09-29T12:02:21.351Z,59.50
2018-09-29T12:04:49.794Z,59.20
2018-09-29T12:07:18.331Z,59.70
2018-09-29T12:09:46.535Z,60.10
2018-09-29T12:12:14.939Z,60.60
2018-09-29T12:14:43.278Z,60.70
2018-09-29T12:17:11.666Z,59.20
2018-09-29T12:19:40.019Z,60.20
2018-09-29T12:22:08.403Z,59.90
2018-09-29T12:24:36.730Z,59.80
2018-09-29T12:27:05.177Z,58.50
2018-09-29T12:29:33.662Z,58.50
2018-09-29T12:32:02.014Z,57.60
2018-09-29T12:34:30.385Z,56.30
2018-09-29T12:36:58.957Z,55.20
2018-09-29T12:39:27.204Z,54.50
2018-09-29T12:41:55.878Z,54.70
2018-09-29T12:44:24.349Z,53.90
2018-09-29T12:46:52.737Z,53.00
2018-09-29T12:49:21.092Z,52.00
2018-09-29T12:51:49.526Z,53.20
2018-09-29T12:54:17.956Z,54.00
2018-09-29T12:56:46.443Z,53.00
2018-09-29T12:59:15.308Z,51.30
2018-09-29T13:01:43.670Z,50.40
2018-09-29T13:04:12.075Z,48.70
2018-09-29T13:06:40.555Z,48.20
2018-09-29T13:09:08.971Z,48.20
2018-09-29T13:11:37.445Z,47.30
2018-09-29T13:14:06.056Z,47.10
2018-09-29T13:16:35.288Z,47.80
2018-09-29T13:19:03.723Z,48.30
2018-09-29T13:21:32.111Z,47.80
2018-09-29T13:24:00.479Z,46.10
2018-09-29T13:26:28.871Z,45.40
2018-09-29T13:28:57.296Z,45.40
2018-09-29T13:31:25.791Z,45.50
2018-09-29T13:33:54.203Z,46.80
2018-09-29T13:36:22.614Z,45.30
2018-09-29T13:38:50.954Z,44.30
2018-09-29T13:41:19.350Z,43.20
2018-09-29T13:43:47.696Z,44.10
2018-09-29T13:46:16.055Z,45.10
2018-09-29T13:48:44.437Z,44.40
2018-09-29T13:51:13.035Z,43.10
2018-09-29T13:53:41.797Z,43.00
2018-09-29T13:56:10.149Z,42.70
2018-09-29T13:58:38.567Z,42.40
2018-09-29T14:01:07.184Z,43.00
2018-09-29T14:03:35.972Z,42.10
2018-09-29T14:06:04.362Z,42.10
2018-09-29T14:08:32.786Z,40.50
2018-09-29T14:11:01.122Z,40.20
2018-09-29T14:13:29.600Z,41.50
2018-09-29T14:15:58.028Z,42.70
2018-09-29T14:18:26.418Z,42.00
2018-09-29T14:20:54.765Z,40.20
2018-09-29T14:23:23.159Z,39.20
2018-09-29T14:25:51.500Z,40.30
2018-09-29T14:28:19.890Z,40.20
2018-09-29T14:30:48.320Z,41.60
2018-09-29T14:33:16.731Z,40.10
2018-09-29T14:35:45.093Z,39.80
2018-09-29T14:38:13.462Z,38.70
2018-09-29T14:40:41.833Z,37.40
2018-09-29T14:43:10.195Z,36.00
2018-09-29T14:45:38.534Z,35.40
2018-09-29T14:48:06.907Z,36.10
2018-09-29T14:50:35.254Z,37.60
2018-09-29T14:53:03.725Z,37.20
2018-09-29T14:55:32.099Z,36.50
2018-09-29T14:58:00.564Z,36.20
2018-09-29T15:00:28.884Z,34.50
2018-09-29T15:02:57.253Z,33.30
2018-09-29T15:05:25.618Z,33.90
2018-09-29T15:07:54.049Z,36.00
2018-09-29T15:10:22.485Z,35.80
2018-09-29T15:12:50.910Z,36.10
2018-09-29T15:15:19.267Z,35.30
2018-09-29T15:17:47.760Z,34.60
2018-09-29T15:20:16.139Z,35.30
2018-09-29T15:22:44.470Z,34.20
2018-09-29T15:25:12.913Z,33.10
2018-09-29T15:27:41.520Z,33.70
2018-09-29T15:30:09.850Z,32.30
2018-09-29T15:32:38.279Z,32.80
2018-09-29T15:35:06.696Z,32.60
2018-09-29T15:37:35.107Z,31.70
2018-09-29T15:42:48.249Z,31.00
2018-09-29T15:45:16.534Z,31.70
2018-09-29T15:47:44.916Z,30.90
2018-09-29T15:50:13.279Z,30.70
2018-09-29T15:52:41.695Z,30.10
2018-09-29T15:55:10.070Z,30.30
2018-09-29T15:57:38.452Z,32.00
2018-09-29T16:00:06.839Z,33.80
2018-09-29T16:02:35.227Z,32.20
2018-09-29T16:05:03.617Z,31.80
2018-09-29T16:07:31.984Z,32.30
2018-09-29T16:10:05.999Z,33.30
2018-09-29T16:12:34.518Z,33.40
2018-09-29T16:15:02.905Z,33.90
2018-09-29T16:17:31.334Z,33.00
2018-09-29T16:19:59.707Z,33.40
2018-09-29T16:22:28.085Z,33.10
2018-09-29T16:25:00.741Z,33.70
2018-09-29T16:27:34.531Z,35.20
2018-09-29T16:30:05.755Z,34.40
2018-09-29T16:32:36.278Z,35.60
2018-09-29T16:35:06.795Z,38.30
2018-09-29T16:37:38.178Z,38.10
2018-09-29T16:40:09.332Z,38.00
2018-09-29T16:42:39.825Z,39.80
2018-09-29T16:45:09.988Z,39.70
2018-09-29T16:47:39.665Z,41.10
2018-09-29T16:50:08.197Z,41.00
2018-09-29T16:52:36.600Z,40.20
2018-09-29T16:55:05.619Z,42.60
2018-09-29T16:57:38.221Z,44.10
2018-09-29T17:00:06.607Z,45.20
2018-09-29T17:02:35.011Z,46.50
2018-09-29T17:05:05.031Z,46.50
2018-09-29T17:07:34.805Z,47.40
2018-09-29T17:10:04.566Z,48.50
2018-09-29T17:12:33.782Z,49.00
2018-09-29T17:15:03.197Z,49.50
2018-09-29T17:17:33.242Z,50.10
2018-09-29T17:20:02.851Z,50.50
2018-09-29T17:22:32.013Z,51.00
2018-09-29T17:25:01.349Z,51.90
2018-09-29T17:27:30.824Z,52.30
2018-09-29T17:30:01.870Z,53.40
2018-09-29T17:32:30.463Z,53.20
2018-09-29T17:34:59.452Z,53.60
2018-09-29T17:37:28.477Z,53.90
2018-09-29T17:39:57.285Z,54.50
2018-09-29T17:42:25.647Z,54.90
2018-09-29T17:44:54.102Z,55.30
2018-09-29T17:47:23.094Z,55.80
2018-09-29T17:49:52.055Z,56.20
2018-09-29T17:52:20.937Z,57.40
2018-09-29T17:54:49.990Z,56.80
2018-09-29T17:57:19.153Z,57.30
2018-09-29T17:59:47.705Z,57.60
2018-09-29T18:02:16.114Z,57.60
2018-09-29T18:04:44.498Z,58.30
2018-09-29T18:07:12.902Z,58.70
2018-09-29T18:09:42.573Z,58.60
2018-09-29T18:12:11.991Z,58.80
2018-09-29T18:14:41.500Z,59.20
2018-09-29T18:17:10.371Z,59.50
2018-09-29T18:19:40.115Z,59.40
2018-09-29T18:22:10.043Z,60.00
2018-09-29T18:24:39.372Z,60.30
2018-09-29T18:27:09.104Z,60.80
2018-09-29T18:29:41.590Z,61.00
2018-09-29T18:32:11.919Z,61.50
2018-09-29T18:34:41.418Z,62.20
2018-09-29T18:37:09.914Z,63.10
2018-09-29T18:39:39.351Z,63.60
2018-09-29T18:42:08.498Z,64.30
2018-09-29T18:44:45.152Z,65.00
2018-09-29T18:47:15.211Z,65.90
2018-09-29T18:52:37.390Z,67.50
2018-09-29T18:55:09.541Z,68.60
2018-09-29T18:57:37.983Z,69.30
2018-09-29T19:00:06.439Z,70.40
2018-09-29T19:02:34.826Z,71.60
2018-09-29T19:05:03.202Z,72.70
2018-09-29T19:07:31.874Z,72.70
2018-09-29T19:10:00.243Z,74.10
2018-09-29T19:12:28.645Z,75.30
2018-09-29T19:14:57.126Z,76.20
2018-09-29T19:17:25.506Z,77.10
2018-09-29T19:19:54.023Z,77.80
2018-09-29T19:22:22.412Z,78.90
2018-09-29T19:24:50.802Z,79.70
2018-09-29T19:27:19.201Z,80.70
2018-09-29T19:29:47.598Z,81.80
2018-09-29T19:32:15.977Z,82.90
2018-09-29T19:34:44.371Z,83.70
2018-09-29T19:37:12.944Z,84.80
2018-09-29T19:39:41.357Z,85.30
2018-09-29T19:42:09.807Z,86.60
2018-09-29T19:44:38.187Z,87.50
2018-09-29T19:47:06.697Z,88.50
2018-09-29T19:49:35.123Z,89.60
2018-09-29T19:52:03.548Z,90.50
2018-09-29T19:54:31.898Z,91.10
2018-09-29T19:57:00.298Z,92.00
2018-09-29T19:59:28.674Z,92.20
2018-09-29T20:01:57.184Z,92.80
2018-09-29T20:04:25.569Z,93.20
2018-09-29T20:06:53.978Z,93.50
2018-09-29T20:09:22.323Z,94.20
2018-09-29T20:11:50.746Z,94.70
2018-09-29T20:14:19.183Z,94.90
2018-09-29T20:16:47.599Z,95.00
2018-09-29T20:19:16.007Z,95.40
2018-09-29T20:21:44.434Z,95.90
2018-09-29T20:24:12.861Z,96.00
2018-09-29T20:26:41.256Z,96.20
2018-09-29T20:29:09.638Z,97.00
2018-09-29T20:31:38.038Z,97.20
2018-09-29T20:34:06.472Z,97.30
2018-09-29T20:36:34.922Z,97.70
2018-09-29T20:39:04.068Z,98.10
2018-09-29T20:41:32.450Z,98.20
2018-09-29T20:44:00.866Z,98.50
2018-09-29T20:46:29.266Z,98.80
2018-09-29T20:48:57.674Z,99.50
2018-09-29T20:51:26.130Z,99.60
2018-09-29T20:53:54.823Z,99.90
2018-09-29T20:56:23.210Z,99.90
2018-09-29T20:58:51.605Z,99.90
2018-09-29T21:01:20.002Z,99.90
2018-09-29T21:03:48.426Z,99.90
2018-09-29T21:06:16.800Z,99.90
2018-09-29T21:08:45.238Z,99.90
2018-09-29T21:11:13.638Z,99.90
2018-09-29T21:13:42.043Z,99.90
2018-09-29T21:16:10.389Z,99.90
2018-09-29T21:18:38.802Z,99.90
2018-09-29T21:21:07.242Z,99.90
2018-09-29T21:23:35.672Z,99.90
2018-09-29T21:26:04.226Z,99.90
2018-09-29T21:28:33.682Z,99.90
2018-09-29T21:31:02.063Z,99.90
2018-09-29T21:33:30.425Z,99.90
2018-09-29T21:35:58.794Z,99.90
2018-09-29T21:38:27.223Z,99.90
2018-09-29T21:40:55.569Z,99.90
2018-09-29T21:43:24.138Z,99.90
2018-09-29T21:45:52.574Z,99.90
2018-09-29T21:48:21.234Z,99.90
2018-09-29T21:50:50.184Z,99.90
2018-09-29T21:53:18.682Z,99.90
2018-09-29T21:55:47.251Z,99.90
2018-09-29T21:58:15.920Z,99.90
2018-09-29T22:00:45.331Z,99.90
2018-09-29T22:03:15.502Z,99.90
2018-09-29T22:05:44.453Z,99.90
2018-09-29T22:08:13.074Z,99.90
2018-09-29T22:10:41.530Z,99.90
2018-09-29T22:13:10.253Z,99.90
2018-09-29T22:15:39.066Z,99.90
2018-09-29T22:18:07.699Z,99.90
2018-09-29T22:20:36.350Z,99.90
2018-09-29T22:23:04.724Z,99.90
2018-09-29T22:25:33.252Z,99.90
2018-09-29T22:28:01.784Z,99.90
2018-09-29T22:30:30.295Z,99.90
2018-09-29T22:32:59.568Z,99.90
2018-09-29T22:35:28.247Z,99.90
2018-09-29T22:37:56.967Z,99.90
2018-09-29T22:40:25.471Z,99.90
2018-09-29T22:42:54.107Z,99.90
2018-09-29T22:45:22.650Z,99.90
2018-09-29T22:47:51.070Z,99.90
2018-09-29T22:50:19.502Z,99.90
2018-09-29T22:52:48.214Z,99.90
2018-09-29T22:55:16.857Z,99.90
2018-09-29T22:57:45.460Z,99.90
2018-09-29T23:00:14.018Z,99.90
2018-09-29T23:02:42.553Z,99.90
2018-09-29T23:05:11.124Z,99.90
2018-09-29T23:07:39.576Z,99.90
2018-09-29T23:10:08.697Z,99.90
2018-09-29T23:12:37.212Z,99.90
2018-09-29T23:15:05.698Z,99.90
2018-09-29T23:17:34.310Z,99.90
2018-09-29T23:20:03.827Z,99.90
2018-09-29T23:22:32.312Z,99.90
2018-09-29T23:25:00.860Z,99.90
2018-09-29T23:27:29.319Z,99.90
2018-09-29T23:29:57.737Z,99.90
2018-09-29T23:32:26.497Z,99.90
2018-09-29T23:34:55.009Z,99.90
2018-09-29T23:37:23.486Z,99.90
2018-09-29T23:39:52.173Z,99.90
2018-09-29T23:42:20.708Z,99.90
2018-09-29T23:44:49.288Z,99.90
2018-09-29T23:47:17.860Z,99.90
2018-09-29T23:49:46.358Z,99.90
2018-09-29T23:52:14.937Z,99.90
2018-09-29T23:54:43.392Z,99.90
2018-09-29T23:57:11.935Z,99.90
2018-09-29T23:59:40.638Z,99.90
